Latest Weather Observations for Macquarie Island*

IDT60801

Issued at 12:05 pm EST Sunday 31 August 2014 (issued every 30 minutes, with the page automatically refreshed every 10 minutes)

About weather observations | Map of weather stations | Latest weather observations for ANT | Other Formats
Station Details ID: 300004 Name: MACQUARIE ISLAND Lat: -54.50 Lon: 158.94 Height: 6.0 m
Data from the previous 72 hours. | See also: Recent months at Macquarie Island*
Date/Time
EST
Temp
°C
App
Temp
°C
Dew
Point
Rel
Hum
%
Delta-T
°C
Wind Press
QNH
hPa
Press
MSL
hPa
Rain
since 9 am
mm
Dir
 
Spd
km/h
Gust
km/h
Spd
kts
Gust
kts
31/12:00pm 6.7 -5.1 5.8 94 0.4 NNW 57 69 31 37 1003.0 1003.3 0.0
31/11:30am 6.7 -5.1 5.8 94 0.4 NNW 57 70 31 38 1003.4 - 0.0
31/11:00am 6.6 -5.5 5.9 95 0.3 NNW 59 70 32 38 1004.2 - 0.0
31/10:30am 6.7 -5.4 6.0 95 0.3 NNW 59 74 32 40 1004.4 - 0.0
31/10:00am 6.7 -4.5 6.0 95 0.3 NNW 54 69 29 37 1004.8 - 0.0
31/09:45am 6.6 -4.2 5.9 95 0.3 NNW 52 70 28 38 1005.1 - 0.0
31/09:30am 6.6 -4.6 5.9 95 0.3 NNW 54 69 29 37 1005.2 - 0.0
31/09:00am 6.6 -4.2 5.9 95 0.3 NNW 52 65 28 35 1005.6 1005.9 0.2
31/08:30am 6.6 -3.8 5.9 95 0.3 NNW 50 67 27 36 1005.9 - 0.2
31/08:07am 6.7 -3.7 6.0 95 0.3 NNW 50 70 27 38 1006.0 - 0.2
31/08:00am 6.6 -3.5 5.9 95 0.3 NNW 48 65 26 35 1006.1 - 0.2
31/07:48am 6.6 -3.8 5.9 95 0.3 NNW 50 69 27 37 1006.2 - 0.2
31/07:30am 6.4 -3.3 5.7 95 0.3 NNW 46 61 25 33 1006.4 - 0.0
31/07:00am 6.6 -3.8 5.9 95 0.3 NNW 50 65 27 35 1006.5 - 0.0
31/06:30am 6.5 -3.2 5.8 95 0.3 NNW 46 63 25 34 1006.8 - 0.0
31/06:10am 6.6 -3.8 5.9 95 0.3 NNW 50 70 27 38 1006.8 - 0.0
31/06:00am 6.6 -3.8 5.9 95 0.3 NNW 50 63 27 34 1006.8 1007.1 0.0
31/05:30am 6.6 -3.5 5.7 94 0.4 NNW 48 63 26 34 1007.3 - 0.0
31/05:16am 6.8 -3.3 5.9 94 0.4 NW 48 69 26 37 1007.4 - 0.0
31/05:00am 6.6 -3.5 5.7 94 0.4 NNW 48 65 26 35 1007.5 - 0.0
31/04:30am 6.6 -3.1 5.7 94 0.4 NNW 46 61 25 33 1007.8 - 0.0
31/04:24am 6.6 -3.1 5.7 94 0.4 NNW 46 65 25 35 1007.9 - 0.0
31/04:00am 6.6 -3.5 5.7 94 0.4 NNW 48 61 26 33 1008.1 - 0.0
31/03:30am 6.6 -3.9 5.6 93 0.4 NNW 50 63 27 34 1008.3 - 0.0
31/03:00am 6.8 -3.7 5.7 93 0.5 NNW 50 69 27 37 1008.5 1008.8 0.0
31/02:58am 6.8 -3.7 5.7 93 0.5 NNW 50 69 27 37 1008.6 - 0.0
31/02:30am 6.6 -3.5 5.6 93 0.4 NNW 48 61 26 33 1009.1 - 0.0
31/02:00am 6.7 -3.1 5.5 92 0.5 NNW 46 57 25 31 1009.7 - 0.0
31/01:39am 7.1 -3.3 6.0 93 0.5 NNW 50 72 27 39 1009.7 - 0.0
31/01:30am 6.9 -2.8 5.8 93 0.5 NNW 46 57 25 31 1009.8 - 0.0
31/01:00am 6.8 -3.7 5.7 93 0.5 NNW 50 65 27 35 1010.0 - 0.0
31/12:30am 6.9 -4.8 5.5 91 0.6 NNW 56 69 30 37 1009.6 - 0.0
31/12:00am 6.9 -3.6 5.4 90 0.7 NNW 50 57 27 31 1009.6 1009.9 0.0
 
Date/Time
EST
Temp
°C
App
Temp
°C
Dew
Point
Rel
Hum
%
Delta-T
°C
Wind Press
QNH
hPa
Press
MSL
hPa
Rain
since 9 am
mm
Dir
 
Spd
km/h
Gust
km/h
Spd
kts
Gust
kts
30/11:30pm 6.8 -3.0 5.1 89 0.7 NNW 46 54 25 29 1010.6 - 0.0
30/11:00pm 7.0 -0.7 5.3 89 0.8 NNW 35 48 19 26 1011.0 - 0.0
30/10:30pm 6.8 -2.4 5.3 90 0.7 NNW 43 52 23 28 1011.3 - 0.0
30/10:00pm 6.9 -1.9 5.4 90 0.7 NNW 41 54 22 29 1011.8 - 0.0
30/09:30pm 6.8 -2.1 5.3 90 0.7 NNW 41 50 22 27 1011.9 - 0.0
30/09:00pm 7.0 -1.8 5.6 91 0.6 NNW 41 54 22 29 1012.2 1012.5 0.0
30/08:30pm 6.8 -2.4 5.4 91 0.6 NNW 43 56 23 30 1012.3 - 0.0
30/08:16pm 7.0 -1.8 5.6 91 0.6 NW 41 59 22 32 1012.2 - 0.0
30/08:00pm 6.7 -2.1 5.5 92 0.5 NNW 41 54 22 29 1012.1 - 0.0
30/07:30pm 6.8 -2.6 5.6 92 0.5 NNW 44 56 24 30 1012.4 - 0.0
30/07:00pm 6.7 -1.8 5.3 91 0.6 NNW 39 48 21 26 1012.4 - 0.0
30/06:30pm 6.8 -2.0 5.6 92 0.5 NNW 41 54 22 29 1012.6 - 0.0
30/06:00pm 6.8 -2.0 5.6 92 0.5 NNW 41 52 22 28 1013.0 1013.3 0.0
30/05:30pm 6.7 -1.7 5.5 92 0.5 NW 39 52 21 28 1013.1 - 0.0
30/05:00pm 6.7 -2.5 5.5 92 0.5 NNW 43 54 23 29 1013.1 - 0.0
30/04:30pm 6.7 -3.0 5.7 93 0.4 NNW 46 56 25 30 1013.2 - 0.0
30/04:00pm 6.7 -3.4 5.5 92 0.5 NNW 48 63 26 34 1013.2 - 0.0
30/03:30pm 6.8 -2.9 5.7 93 0.5 NNW 46 57 25 31 1013.2 - 0.0
30/03:00pm 6.7 -3.0 5.8 94 0.4 NW 46 57 25 31 1013.2 1013.5 0.0
30/02:30pm 6.6 -3.5 5.7 94 0.4 NNW 48 61 26 33 1013.6 - 0.0
30/02:00pm 6.6 -4.3 5.7 94 0.4 NNW 52 63 28 34 1013.9 - 0.0
30/01:30pm 6.6 -3.5 5.7 94 0.4 NNW 48 61 26 33 1014.0 - 0.0
30/01:00pm 6.6 -3.8 5.9 95 0.3 NNW 50 63 27 34 1013.9 - 0.0
30/12:30pm 6.6 -3.5 5.9 95 0.3 NNW 48 57 26 31 1014.2 - 0.0
30/12:00pm 6.6 -4.3 5.7 94 0.4 NNW 52 65 28 35 1014.3 1014.6 0.0
30/11:31am 6.9 -2.8 6.0 94 0.4 NNW 46 65 25 35 1013.9 - 0.0
30/11:30am 6.8 -2.5 5.9 94 0.4 NNW 44 59 24 32 1014.0 - 0.0
30/11:00am 6.6 -3.1 5.6 93 0.4 NNW 46 57 25 31 1014.7 - 0.0
30/10:30am 6.8 -3.3 5.7 93 0.5 NNW 48 63 26 34 1015.2 - 0.0
30/10:00am 6.8 -2.9 5.7 93 0.5 NNW 46 65 25 35 1015.3 - 0.0
30/09:30am 6.7 -2.4 5.7 93 0.4 NNW 43 63 23 34 1015.2 - 0.0
30/09:29am 6.8 -2.3 5.7 93 0.5 NNW 43 63 23 34 1015.2 - 0.0
30/09:00am 6.8 -2.6 5.6 92 0.5 NNW 44 59 24 32 1015.9 1016.2 0.2
30/08:30am 6.8 -2.5 5.7 93 0.5 NNW 44 57 24 31 1016.3 - 0.2
30/08:00am 6.7 -1.7 5.7 93 0.4 NNW 39 50 21 27 1016.3 - 0.2
30/07:30am 6.6 -1.4 5.7 94 0.4 NNW 37 52 20 28 1016.8 - 0.2
30/07:00am 6.5 -2.7 5.6 94 0.4 NNW 43 54 23 29 1016.7 - 0.2
30/06:30am 6.7 -2.6 5.7 93 0.4 NNW 44 57 24 31 1016.9 - 0.2
30/06:00am 6.8 -2.9 5.7 93 0.5 NNW 46 65 25 35 1017.2 1017.5 0.2
30/05:37am 6.8 -2.8 6.1 95 0.3 NNW 46 65 25 35 1017.3 - 0.2
30/05:30am 6.6 -3.1 5.9 95 0.3 NNW 46 56 25 30 1017.4 - 0.2
30/05:00am 6.6 -3.8 5.9 95 0.3 NNW 50 61 27 33 1017.7 - 0.2
30/04:30am 6.6 -3.4 6.0 96 0.3 NNW 48 61 26 33 1018.0 - 0.2
30/04:00am 6.6 -3.1 6.0 96 0.3 NNW 46 57 25 31 1018.4 - 0.2
30/03:30am 6.5 -3.2 5.9 96 0.3 NNW 46 56 25 30 1018.6 - 0.2
30/03:00am 6.3 -2.8 5.7 96 0.3 NNW 43 50 23 27 1019.1 1019.4 0.2
30/02:30am 6.3 -2.9 5.6 95 0.3 NNW 43 50 23 27 1019.4 - 0.2
30/02:00am 6.1 -2.8 5.2 94 0.4 NNW 41 48 22 26 1020.0 - 0.2
30/01:30am 5.7 -2.9 4.8 94 0.4 NNW 39 43 21 23 1020.6 - 0.2
30/01:00am 5.5 -3.1 4.6 94 0.4 NNW 39 48 21 26 1021.0 - 0.2
30/12:30am 5.5 -3.5 4.5 93 0.4 NNW 41 52 22 28 1021.6 - 0.2
30/12:05am 5.4 -4.1 4.1 91 0.6 NNW 43 61 23 33 1021.6 - 0.2
30/12:00am 5.3 -3.8 4.1 92 0.5 NNW 41 54 22 29 1021.8 1022.1 0.2
 
Date/Time
EST
Temp
°C
App
Temp
°C
Dew
Point
Rel
Hum
%
Delta-T
°C
Wind Press
QNH
hPa
Press
MSL
hPa
Rain
since 9 am
mm
Dir
 
Spd
km/h
Gust
km/h
Spd
kts
Gust
kts
29/11:30pm 4.8 -5.7 3.8 93 0.4 NNW 48 57 26 31 1022.2 - 0.2
29/11:22pm 4.8 -3.9 3.9 94 0.4 NNW 39 57 21 31 1022.1 - 0.2
29/11:00pm 4.5 -3.2 3.5 93 0.4 NNW 33 41 18 22 1022.5 - 0.2
29/10:30pm 4.2 -3.9 3.3 94 0.4 N 35 41 19 22 1022.8 - 0.2
29/10:24pm 4.1 -4.0 3.2 94 0.4 NNE 35 39 19 21 1022.8 - 0.2
29/10:15pm 4.1 -4.4 3.2 94 0.4 N 37 39 20 21 1022.9 - 0.2
29/10:11pm 4.1 -4.8 3.2 94 0.4 NNE 39 41 21 22 1022.9 - 0.2
29/10:06pm 4.1 -4.4 3.2 94 0.4 NNW 37 41 20 22 1023.0 - 0.2
29/10:00pm 4.1 -5.5 3.2 94 0.4 NNE 43 44 23 24 1023.0 - 0.2
29/09:58pm 4.2 -5.4 3.3 94 0.4 NNE 43 44 23 24 1023.0 - 0.2
29/09:55pm 4.1 -5.5 3.2 94 0.4 N 43 46 23 25 1023.0 - 0.2
29/09:50pm 4.1 -5.5 3.2 94 0.4 NW 43 50 23 27 1023.0 - 0.2
29/09:47pm 4.2 -5.4 3.3 94 0.4 N 43 46 23 25 1023.0 - 0.2
29/09:35pm 4.4 -5.7 3.7 95 0.3 NW 46 48 25 26 1023.2 - 0.2
29/09:30pm 4.5 -5.0 3.8 95 0.3 NNW 43 46 23 25 1023.2 - 0.2
29/09:25pm 4.5 -5.1 3.6 94 0.4 NW 43 46 23 25 1023.2 - 0.2
29/09:00pm 4.8 -4.9 4.1 95 0.3 N 44 52 24 28 1023.3 1023.6 0.2
29/08:54pm 4.9 -4.7 4.2 95 0.3 N 44 50 24 27 1023.3 - 0.2
29/08:30pm 4.8 -1.8 4.2 96 0.3 NNW 28 33 15 18 1023.6 - 0.2
29/08:00pm 4.4 -3.0 3.8 96 0.2 NNW 32 43 17 23 1023.6 - 0.0
29/07:30pm 4.2 -2.9 3.6 96 0.2 NNW 30 39 16 21 1023.9 - 0.0
29/07:00pm 4.1 -3.6 3.5 96 0.2 N 33 37 18 20 1024.3 - 0.0
29/06:30pm 4.1 -4.0 3.4 95 0.3 NNW 35 43 19 23 1024.3 - 0.0
29/06:00pm 3.9 -3.8 3.3 96 0.2 NNW 33 41 18 22 1024.7 1025.0 0.0
29/05:53pm 3.9 -4.2 3.3 96 0.2 N 35 37 19 20 1024.9 - 0.0
29/05:51pm 3.9 -4.6 3.3 96 0.2 NNW 37 46 20 25 1024.9 - 0.0
29/05:30pm 3.9 -3.6 3.3 96 0.2 WNW 32 35 17 19 1024.7 - 0.0
29/05:00pm 4.2 -2.5 3.6 96 0.2 WNW 28 35 15 19 1024.8 - 0.0
29/04:30pm 5.1 -0.3 4.5 96 0.3 NNW 22 32 12 17 1024.7 - 0.0
29/04:00pm 4.5 0.3 3.9 96 0.3 NW 15 17 8 9 1024.8 - 0.0
29/03:30pm 4.7 0.9 4.0 95 0.3 NNW 13 15 7 8 1025.0 - 0.0
29/03:00pm 5.0 2.0 4.3 95 0.3 W 9 11 5 6 1025.1 1025.4 0.0
29/02:30pm 4.8 2.4 4.1 95 0.3 NNW 6 9 3 5 1025.1 - 0.0
29/02:00pm 4.8 2.2 4.1 95 0.3 NW 7 9 4 5 1025.5 - 0.0
29/01:30pm 4.6 1.9 3.7 94 0.4 ESE 7 11 4 6 1025.7 - 0.0
29/01:00pm 4.5 3.1 3.8 95 0.3 CALM 0 6 0 3 1026.3 - 0.0
29/12:30pm 4.2 1.4 3.3 94 0.4 NNW 7 17 4 9 1026.9 - 0.0
29/12:00pm 4.3 1.7 3.4 94 0.4 ENE 6 11 3 6 1027.3 1027.6 0.0
29/11:30am 4.0 0.8 3.1 94 0.4 NNE 9 17 5 9 1027.8 - 0.0
29/11:00am 4.1 0.9 3.2 94 0.4 NE 9 15 5 8 1028.4 - 0.0
29/10:30am 3.8 0.6 2.9 94 0.4 NNE 9 17 5 9 1028.9 - 0.0
29/10:00am 3.7 0.9 3.0 95 0.3 N 7 13 4 7 1029.2 - 0.0
29/09:30am 3.7 -1.0 3.0 95 0.3 N 17 22 9 12 1029.5 - 0.0
29/09:00am 3.5 -2.2 2.6 94 0.4 N 22 28 12 15 1029.5 1029.8 0.0
29/08:30am 4.2 -0.9 3.2 93 0.4 N 19 20 10 11 1029.6 - 0.0
29/08:00am 4.4 -0.3 3.4 93 0.4 NNE 17 22 9 12 1029.6 - 0.0
29/07:30am 4.3 0.3 3.1 92 0.5 NNE 13 20 7 11 1029.9 - 0.0
29/07:00am 4.2 -0.1 3.2 93 0.4 NNE 15 19 8 10 1030.0 - 0.0
29/06:30am 4.0 0.0 3.0 93 0.4 NNE 13 17 7 9 1030.0 - 0.0
29/06:00am 4.1 0.1 3.1 93 0.4 N 13 15 7 8 1030.2 1030.5 0.0
29/05:30am 4.2 0.3 3.2 93 0.4 N 13 15 7 8 1030.3 - 0.0
29/05:00am 4.2 0.2 3.0 92 0.5 NNW 13 13 7 7 1030.5 - 0.0
29/04:30am 4.2 -0.1 3.0 92 0.5 NNW 15 19 8 10 1030.4 - 0.0
29/04:00am 4.1 -0.2 3.2 94 0.4 NNW 15 20 8 11 1030.3 - 0.0
29/03:30am 4.0 -0.3 3.1 94 0.4 NW 15 19 8 10 1030.4 - 0.0
29/03:00am 3.9 -0.8 3.2 95 0.3 WNW 17 20 9 11 1030.3 1030.6 0.0
29/02:30am 3.9 -1.4 3.0 94 0.4 WNW 20 26 11 14 1030.3 - 0.0
29/02:00am 3.7 -2.4 2.8 94 0.4 WNW 24 30 13 16 1030.5 - 0.0
29/01:30am 3.9 -2.9 2.9 93 0.4 WNW 28 35 15 19 1030.4 - 0.0
29/01:00am 4.0 -2.8 3.0 93 0.4 W 28 37 15 20 1030.3 - 0.0
29/12:30am 4.1 -3.4 3.2 94 0.4 WNW 32 41 17 22 1030.0 - 0.0
29/12:00am 4.2 -3.3 3.5 95 0.3 WNW 32 39 17 21 1029.9 1030.2 0.0
 
Date/Time
EST
Temp
°C
App
Temp
°C
Dew
Point
Rel
Hum
%
Delta-T
°C
Wind Press
QNH
hPa
Press
MSL
hPa
Rain
since 9 am
mm
Dir
 
Spd
km/h
Gust
km/h
Spd
kts
Gust
kts
28/11:30pm 4.1 -2.6 3.5 96 0.2 NW 28 33 15 18 1029.9 - 0.0
28/11:00pm 3.8 -2.9 3.4 97 0.2 WNW 28 32 15 17 1029.6 - 0.0
28/10:30pm 3.8 -4.3 3.4 97 0.2 WNW 35 41 19 22 1029.4 - 0.0
28/10:00pm 3.8 -3.9 3.4 97 0.2 WNW 33 39 18 21 1029.5 - 0.0
28/09:30pm 3.7 -4.0 3.3 97 0.2 NW 33 39 18 21 1029.6 - 0.0
28/09:00pm 3.6 -3.9 3.2 97 0.2 NW 32 37 17 20 1029.6 1029.9 0.0
28/08:30pm 3.6 -3.9 3.2 97 0.2 NW 32 41 17 22 1029.4 - 0.0
28/08:00pm 3.6 -4.1 3.2 97 0.2 NW 33 39 18 21 1029.3 - 0.0
28/07:30pm 3.7 -4.0 3.3 97 0.2 NW 33 39 18 21 1029.2 - 0.0
28/07:00pm 3.8 -3.7 3.2 96 0.2 WNW 32 39 17 21 1029.0 - 0.0
28/06:30pm 3.7 -4.4 3.1 96 0.2 WNW 35 41 19 22 1028.7 - 0.0
28/06:00pm 3.7 -4.4 3.1 96 0.2 WNW 35 43 19 23 1028.3 1028.6 0.0
28/05:30pm 3.7 -3.9 3.1 96 0.2 WNW 32 39 17 21 1028.3 - 0.0
28/05:00pm 3.9 -3.8 3.2 95 0.3 W 33 43 18 23 1028.1 - 0.0
28/04:30pm 3.9 -5.0 3.0 94 0.4 W 39 46 21 25 1027.8 - 0.0
28/04:00pm 4.0 -4.9 3.1 94 0.4 W 39 48 21 26 1027.5 - 0.0
28/03:30pm 4.1 -5.2 3.1 93 0.4 W 41 50 22 27 1027.5 - 0.0
28/03:00pm 4.1 -4.8 2.9 92 0.5 W 39 46 21 25 1027.6 1027.9 0.0
28/02:30pm 4.2 -4.7 3.0 92 0.5 WNW 39 48 21 26 1027.5 - 0.0
28/02:00pm 4.2 -4.7 2.9 91 0.5 W 39 46 21 25 1027.4 - 0.0
28/01:30pm 4.1 -4.8 2.8 91 0.5 W 39 44 21 24 1027.2 - 0.0
28/01:00pm 4.1 -4.9 2.6 90 0.6 W 39 48 21 26 1027.2 - 0.0
28/12:30pm 4.5 -4.4 2.8 89 0.7 W 39 46 21 25 1027.2 - 0.0

Other Formats:

Comma delimited format used in spreadsheet applications
http://www.bom.gov.au/fwo/IDT60803/IDT60803.94998.axf

JavaScript Object Notation format (JSON) in row-major order
http://www.bom.gov.au/fwo/IDT60803/IDT60803.94998.json